Have a Safe July 4th! 

Flight Track Log - Related Links

Times and Time Zones

All times are in EST time to prevent confusion due to time zone crossing. See the N1944E flight status page for this flight to view local times or setup timezone preferences in your user account.

Time Position Orientation Groundspeed Altitude Reporting Facility
EST Latitude Longitude Course Direction KTS MPH feet Rate Location/Type
Sun 04:28:20 PM 43.5761 -110.7533 279° West 150 173 7,100  Level Salt Lake Center
Sun 04:29:00 PM 43.3370 -110.4574 291° West  Level Estimated
Sun 04:29:21 PM 43.5431 -110.7700 200° South 127 146 8,300  Level Salt Lake Center
Sun 04:30:00 PM 43.3461 -110.5339 279° West  Level FlightAware Approximate
Sun 04:30:23 PM 43.5097 -110.7872 201° Southwest 127 146 9,200  Level Salt Lake Center
Sun 04:31:00 PM 43.3553 -110.6104 279° West  Level FlightAware Approximate
Sun 04:31:25 PM 43.4692 -110.7750 168° South 146 168 10,100  Level Salt Lake Center
Sun 04:32:00 PM 43.3643 -110.6870 279° West  Level FlightAware Approximate
Sun 04:32:26 PM 43.4364 -110.7336 137° Southeast 160 184 11,100  Level Salt Lake Center
Sun 04:33:00 PM 43.3733 -110.7636 279° West  Level FlightAware Approximate
Sun 04:33:28 PM 43.3981 -110.6942 143° Southeast 166 191 12,000  Level Salt Lake Center
Sun 04:34:29 PM 43.3575 -110.6533 144° Southeast 177 204 13,000 984 Climbing Salt Lake Center
Sun 04:35:30 PM 43.3089 -110.5994 141° Southeast 187 215 14,000 780 Climbing Salt Lake Center
Sun 04:36:32 PM 43.2658 -110.5550 143° Southeast 193 222 14,600 774 Climbing Salt Lake Center
Sun 04:37:34 PM 43.2197 -110.5083 144° Southeast 198 228 15,600 1,024 Climbing Salt Lake Center
Sun 04:38:35 PM 43.1783 -110.4650 143° Southeast 198 228 16,700 689 Climbing Salt Lake Center
Sun 04:39:36 PM 43.1297 -110.4094 140° Southeast 203 234 17,000 146 Climbing Salt Lake Center
Sun 04:40:38 PM 43.0828 -110.3633 144° Southeast 214 246 17,000  Level Salt Lake Center
Sun 04:41:39 PM 43.0311 -110.3125 144° Southeast 229 264 17,000  Level Salt Lake Center
Sun 04:42:41 PM 42.9764 -110.2486 139° Southeast 232 267 17,000  Level Salt Lake Center
Sun 04:43:42 PM 42.9286 -110.1964 141° Southeast 231 266 17,000 -49 Level Salt Lake Center
Sun 04:44:44 PM 42.8714 -110.1358 142° Southeast 233 268 16,900  Descending Salt Lake Center
Sun 04:45:46 PM 42.8233 -110.0836 141° Southeast 232 267 17,000 49 Climbing Salt Lake Center
Sun 04:46:47 PM 42.7736 -110.0336 144° Southeast 232 267 17,000  Level Salt Lake Center
Sun 04:47:49 PM 42.7169 -109.9728 142° Southeast 233 268 17,000  Level Salt Lake Center
Sun 04:48:50 PM 42.6683 -109.9219 142° Southeast 232 267 17,000 -49 Level Salt Lake Center
Sun 04:49:52 PM 42.6119 -109.8614 142° Southeast 232 267 16,900  Descending Salt Lake Center
Sun 04:50:53 PM 42.5636 -109.8097 142° Southeast 230 265 17,000 49 Climbing Salt Lake Center
Sun 04:51:55 PM 42.5053 -109.7522 144° Southeast 231 266 17,000  Level Salt Lake Center
Sun 04:52:56 PM 42.4564 -109.6997 142° Southeast 233 268 17,000  Level Salt Lake Center
Sun 04:53:58 PM 42.4072 -109.6472 142° Southeast 234 269 17,000  Level Salt Lake Center
Sun 04:54:59 PM 42.3500 -109.5889 143° Southeast 233 268 17,000  Level Salt Lake Center
Sun 04:56:01 PM 42.3008 -109.5367 142° Southeast 233 268 17,000  Level Salt Lake Center
Sun 04:57:02 PM 42.2431 -109.4778 143° Southeast 233 268 17,000  Level Salt Lake Center
Sun 04:58:04 PM 42.1950 -109.4278 142° Southeast 230 265 17,000  Level Salt Lake Center
Sun 04:59:05 PM 42.1478 -109.3783 142° Southeast 227 261 17,000  Level Salt Lake Center
Sun 05:00:07 PM 42.0925 -109.3214 143° Southeast 224 258 17,000  Level Salt Lake Center
Sun 05:01:09 PM 42.0453 -109.2733 143° Southeast 224 258 17,000  Level Salt Lake Center
Sun 05:02:10 PM 41.9892 -109.2164 143° Southeast 225 259 17,000  Level Salt Lake Center
Sun 05:03:12 PM 41.9408 -109.1664 142° Southeast 227 261 17,000  Level Salt Lake Center
Sun 05:04:13 PM 41.8925 -109.1172 143° Southeast 227 261 17,000  Level Salt Lake Center
Sun 05:05:15 PM 41.8372 -109.0592 142° Southeast 227 261 17,000  Level Salt Lake Center
Sun 05:06:16 PM 41.7889 -109.0100 143° Southeast 227 261 17,000  Level Salt Lake Center
Sun 05:07:18 PM 41.7322 -108.9531 143° Southeast 227 261 17,000  Level Salt Lake Center
Sun 05:08:19 PM 41.6833 -108.9050 144° Southeast 227 261 17,000  Level Salt Lake Center
Sun 05:09:21 PM 41.6331 -108.8550 143° Southeast 231 266 17,000  Level Salt Lake Center
Sun 05:10:23 PM 41.5772 -108.7967 142° Southeast 227 261 17,000  Level Salt Lake Center
Sun 05:11:24 PM 41.5281 -108.7472 143° Southeast 229 264 17,000 -49 Level Salt Lake Center
Sun 05:12:26 PM 41.4700 -108.6906 144° Southeast 231 266 16,900  Descending Salt Lake Center
Sun 05:13:27 PM 41.4211 -108.6406 143° Southeast 231 266 17,000 49 Climbing Salt Lake Center
Sun 05:14:29 PM 41.3725 -108.5897 142° Southeast 231 266 17,000  Level Salt Lake Center
Sun 05:15:31 PM 41.3139 -108.5331 144° Southeast 232 267 17,000  Level Salt Lake Center
Sun 05:16:32 PM 41.2642 -108.4822 142° Southeast 234 269 17,000  Level Salt Lake Center
Sun 05:17:34 PM 41.2069 -108.4247 143° Southeast 233 268 17,000  Level Salt Lake Center
Sun 05:18:36 PM 41.1592 -108.3761 143° Southeast 230 265 17,000  Level Salt Lake Center
Sun 05:19:38 PM 41.1022 -108.3200 143° Southeast 228 262 17,000  Level Salt Lake Center
Sun 05:20:37 PM 41.0517 -108.2722 145° Southeast 229 264 17,000 50 Level Denver Center
Sun 05:21:39 PM 41.0022 -108.2239 144° Southeast 230 265 17,100 49 Climbing Denver Center
Sun 05:22:40 PM 40.9453 -108.1681 143° Southeast 228 262 17,100  Level Denver Center
Sun 05:23:42 PM 40.8975 -108.1203 143° Southeast 227 261 17,100  Level Denver Center
Sun 05:24:44 PM 40.8394 -108.0642 144° Southeast 229 264 17,100  Level Denver Center
Sun 05:25:46 PM 40.7906 -108.0175 144° Southeast 227 261 17,100  Level Denver Center
Sun 05:26:48 PM 40.7417 -107.9703 144° Southeast 228 262 17,100  Level Denver Center
Sun 05:27:50 PM 40.6858 -107.9125 142° Southeast 228 262 17,100  Level Denver Center
Sun 05:28:52 PM 40.6372 -107.8667 144° Southeast 226 260 17,100  Level Denver Center
Sun 05:29:53 PM 40.5825 -107.8139 144° Southeast 222 255 17,100  Level Denver Center
Sun 05:30:55 PM 40.5358 -107.7669 143° Southeast 221 254 17,100  Level Denver Center
Sun 05:31:57 PM 40.4825 -107.7161 144° Southeast 214 246 17,100  Level Denver Center
Sun 05:32:59 PM 40.4381 -107.6733 144° Southeast 208 239 17,100  Level Denver Center
Sun 05:34:01 PM 40.3869 -107.6239 144° Southeast 204 235 17,100  Level Denver Center
Sun 05:35:03 PM 40.3433 -107.5817 144° Southeast 203 234 17,100  Level Denver Center
Sun 05:36:04 PM 40.3003 -107.5408 144° Southeast 201 231 17,100  Level Denver Center
Sun 05:37:06 PM 40.2489 -107.4925 144° Southeast 203 234 17,100  Level Denver Center
Sun 05:38:08 PM 40.2058 -107.4514 144° Southeast 201 231 17,100  Level Denver Center
Sun 05:39:10 PM 40.1567 -107.4031 143° Southeast 196 226 17,100  Level Denver Center
Sun 05:40:12 PM 40.1147 -107.3628 144° Southeast 194 223 17,100  Level Denver Center
Sun 05:41:14 PM 40.0647 -107.3156 144° Southeast 197 227 17,100  Level Denver Center
Sun 05:42:16 PM 40.0228 -107.2747 143° Southeast 197 227 17,100  Level Denver Center
Sun 05:43:17 PM 39.9803 -107.2350 144° Southeast 198 228 17,100  Level Denver Center
Sun 05:44:19 PM 39.9369 -107.1939 144° Southeast 195 224 17,100  Level Denver Center
Sun 05:45:21 PM 39.8944 -107.1531 144° Southeast 189 217 17,100 -532 Level Denver Center
Sun 05:46:23 PM 39.8433 -107.1019 142° Southeast 194 223 16,000 -1,258 Descending Denver Center
Sun 05:47:25 PM 39.8003 -107.0647 146° Southeast 187 215 14,500 -1,645 Descending Denver Center
Sun 05:48:27 PM 39.7544 -107.0269 148° Southeast 181 208 12,600 -1,839 Descending Denver Center

Login

Don't have an account? Register now (free) for customized features, flight alerts, and more!